Flight Track Log - Related Links

Times and Time Zones

All times are in EDT time to prevent confusion due to time zone crossing. See the UAL252 flight status page for this flight to view local times or setup timezone preferences in your user account.

Time Position Orientation Groundspeed Altitude Reporting Facility
EDT Latitude Longitude Course Direction KTS MPH feet Rate Location/Type
Tue 09:24:13 AM 41.9500 -87.8500 80° East 181 208 3,800  Level Chicago TRACON
Tue 09:25:14 AM 41.9667 -87.7833 71° East 235 270 5,200 2,132 Climbing Chicago TRACON
Tue 09:26:00 AM 42.0520 -87.3537 78° East  Level FlightAware Approximate
Tue 09:26:14 AM 42.0000 -87.6833 66° East 306 352 8,100  Level Chicago TRACON
Tue 09:27:00 AM 42.0743 -87.2093 78° East  Level FlightAware Approximate
Tue 09:28:00 AM 42.0975 -87.0651 77° East  Level FlightAware Approximate
Tue 09:28:02 AM 42.0458 -87.4806 73° East 326 375 13,700  Level Chicago Center
Tue 09:29:00 AM 42.1122 -86.9193 80° East  Level FlightAware Approximate
Tue 09:29:04 AM 42.0658 -87.3506 78° East 348 400 15,400  Level Chicago Center
Tue 09:30:06 AM 42.0892 -87.2039 78° East 394 453 17,900 3,024 Climbing Chicago Center
Tue 09:31:07 AM 42.1125 -87.0506 78° East 413 475 21,600 3,145 Climbing Chicago Center
Tue 09:32:10 AM 42.1194 -86.8639 87° East 418 481 24,400 2,419 Climbing Chicago Center
Tue 09:33:11 AM 42.1258 -86.6981 87° East 439 505 26,600 1,805 Climbing Chicago Center
Tue 09:34:13 AM 42.1303 -86.5431 88° East 464 534 28,100 1,645 Climbing Chicago Center
Tue 09:35:15 AM 42.1378 -86.3292 87° East 475 547 30,000 1,548 Climbing Chicago Center
Tue 09:36:17 AM 42.1433 -86.1469 88° East 482 555 31,300 1,113 Climbing Chicago Center
Tue 09:37:19 AM 42.1425 -85.9603 90° East 495 570 32,300 919 Climbing Chicago Center
Tue 09:38:21 AM 42.1411 -85.7856 91° East 508 585 33,200 823 Climbing Chicago Center
Tue 09:39:23 AM 42.1386 -85.5503 91° East 525 604 34,000 532 Climbing Chicago Center
Tue 09:40:25 AM 42.1369 -85.3539 91° East 528 608 34,300 484 Climbing Chicago Center
Tue 09:41:27 AM 42.1353 -85.1528 91° East 540 621 35,000 871 Climbing Chicago Center
Tue 09:42:29 AM 42.1325 -84.9486 91° East 546 628 36,100 976 Climbing Chicago Center
Tue 09:43:30 AM 42.1289 -84.7442 91° East 547 629 37,000 419 Climbing Chicago Center
Tue 09:44:38 AM 42.1264 -84.5086 91° East 549 632 37,000  Level Cleveland Center
Tue 09:45:38 AM 42.1419 -84.2911 84° East 544 626 37,000 50 Level Cleveland Center
Tue 09:46:38 AM 42.1625 -84.0961 82° East 528 608 37,100  Climbing Cleveland Center
Tue 09:47:38 AM 42.1828 -83.9039 82° East 528 608 37,000 -50 Descending Cleveland Center
Tue 09:48:38 AM 42.2028 -83.7172 82° East 513 590 37,000  Level Cleveland Center
Tue 09:49:38 AM 42.2156 -83.5467 84° East 507 583 37,000  Level Cleveland Center
Tue 09:50:38 AM 42.2000 -83.3414 96° East 501 577 37,000  Level Cleveland Center
Tue 09:51:38 AM 42.1683 -83.1719 104° East 508 585 37,000  Level Cleveland Center
Tue 09:52:38 AM 42.1369 -82.9914 103° East 508 585 37,000  Level Cleveland Center
Tue 09:53:38 AM 42.1031 -82.8081 104° East 503 579 37,000  Level Cleveland Center
Tue 09:54:38 AM 42.0647 -82.6278 106° East 498 573 37,000  Level Cleveland Center
Tue 09:55:38 AM 42.0386 -82.4481 101° East 498 573 37,000  Level Cleveland Center
Tue 09:56:38 AM 41.9997 -82.2681 106° East 493 567 37,000  Level Cleveland Center
Tue 09:57:38 AM 41.9650 -82.0717 103° East 493 567 37,000  Level Cleveland Center
Tue 09:58:38 AM 41.9297 -81.8867 104° East 500 575 37,000  Level Cleveland Center
Tue 09:59:38 AM 41.9044 -81.7019 100° East 500 575 37,000  Level Cleveland Center
Tue 10:00:38 AM 41.8894 -81.5342 97° East 505 581 37,000  Level Cleveland Center
Tue 10:01:38 AM 41.8739 -81.3500 96° East 499 574 37,000  Level Cleveland Center
Tue 10:02:38 AM 41.8564 -81.1658 97° East 504 580 37,000  Level Cleveland Center
Tue 10:03:38 AM 41.8864 -80.9931 77° East 482 555 37,000  Level Cleveland Center
Tue 10:04:38 AM 41.9411 -80.8064 68° East 474 545 37,000  Level Cleveland Center
Tue 10:05:38 AM 41.9892 -80.6447 68° East 474 545 37,000  Level Cleveland Center
Tue 10:06:38 AM 41.9767 -80.4575 95° East 480 552 37,000 50 Level Cleveland Center
Tue 10:07:38 AM 41.8867 -80.3183 131° Southeast 461 531 37,100  Climbing Cleveland Center
Tue 10:08:38 AM 41.7947 -80.1933 135° Southeast 461 531 37,000 -50 Descending Cleveland Center
Tue 10:09:38 AM 41.7647 -80.0153 103° East 467 537 37,000  Level Cleveland Center
Tue 10:10:38 AM 41.7428 -79.8289 99° East 485 558 37,000  Level Cleveland Center
Tue 10:11:38 AM 41.7247 -79.6511 98° East 485 558 37,000  Level Cleveland Center
Tue 10:12:38 AM 41.7044 -79.4761 99° East 485 558 37,000 -200 Level Cleveland Center
Tue 10:13:38 AM 41.6819 -79.2986 100° East 485 558 36,600 -650 Descending Cleveland Center
Tue 10:14:38 AM 41.6589 -79.1183 100° East 485 558 35,700 -950 Descending Cleveland Center
Tue 10:15:38 AM 41.6397 -78.9439 98° East 485 558 34,700 -1,000 Descending Cleveland Center
Tue 10:16:38 AM 41.6600 -78.7711 81° East 468 539 33,700 -1,700 Descending Cleveland Center
Tue 10:17:38 AM 41.6992 -78.6086 72° East 448 516 31,300 -1,350 Descending Cleveland Center
Tue 10:18:38 AM 41.6753 -78.4342 100° East 448 516 31,000 -98 Descending Cleveland Center
Tue 10:20:41 AM 41.5650 -78.1158 115° Southeast 463 533 31,000  Level New York Center
Tue 10:21:42 AM 41.5125 -77.9550 114° Southeast 471 542 31,000  Level New York Center
Tue 10:22:39 AM 41.4853 -77.7831 102° East 471 542 31,000  Level New York Center
Tue 10:23:40 AM 41.4617 -77.6144 101° East 471 542 31,000  Level New York Center
Tue 10:24:41 AM 41.4361 -77.4403 101° East 466 536 31,000  Level New York Center
Tue 10:25:39 AM 41.4119 -77.2744 101° East 466 536 31,000  Level New York Center
Tue 10:26:39 AM 41.3858 -77.1061 102° East 466 536 31,000 -446 Level New York Center
Tue 10:27:40 AM 41.3611 -76.9378 101° East 466 536 30,100 -992 Descending New York Center
Tue 10:28:40 AM 41.3344 -76.7725 102° East 456 525 29,000 -1,765 Descending New York Center
Tue 10:29:39 AM 41.2939 -76.6197 109° East 451 519 26,600 -2,420 Descending New York Center
Tue 10:30:39 AM 41.2536 -76.4672 109° East 439 505 24,200 -2,281 Descending New York Center
Tue 10:31:40 AM 41.2144 -76.3258 110° East 425 489 22,000 -2,182 Descending New York Center
Tue 10:32:40 AM 41.1772 -76.1822 109° East 413 475 19,800 -1,934 Descending New York Center
Tue 10:33:41 AM 41.1453 -76.0611 109° East 396 456 18,100 -1,636 Descending New York Center
Tue 10:34:41 AM 41.1061 -75.9122 109° East 391 450 16,500 -1,462 Descending New York Center
Tue 10:35:40 AM 41.0700 -75.7828 110° East 391 450 15,200 -1,311 Descending New York Center
Tue 10:36:40 AM 41.0356 -75.6564 110° East 375 432 13,900 -1,091 Descending New York Center
Tue 10:37:41 AM 40.9989 -75.5328 111° Southeast 370 426 13,000 -446 Descending New York Center
Tue 10:38:41 AM 40.9700 -75.4208 109° East 365 420 13,000 -966 Level New York Center
Tue 10:39:39 AM 40.9314 -75.2892 111° Southeast 355 409 11,100 -1,350 Descending New York Center
Tue 10:40:41 AM 40.9000 -75.1800 111° Southeast 333 383 10,300 -1,140 Descending New York Center
Tue 10:41:40 AM 40.8725 -75.0794 110° East 302 348 8,800 -1,412 Descending New York Center
Tue 10:42:40 AM 40.8486 -74.9956 111° Southeast 288 331 7,500 -908 Descending New York Center
Tue 10:43:39 AM 40.8311 -74.9014 104° East 275 316 7,000 -252 Descending New York Center
Tue 10:44:39 AM 40.8647 -74.8292 58° Northeast 224 258 7,000  Level New York Center
Tue 10:45:39 AM 40.9050 -74.7519 55° Northeast 225 259 7,000  Level New York Center
Tue 10:46:41 AM 40.9219 -74.6817 72° East 222 255 7,000 -295 Level New York Center
Tue 10:47:41 AM 40.8931 -74.6031 116° Southeast 208 239 6,400 -550 Descending New York Center
Tue 10:48:30 AM 40.8500 -74.5667 147° Southeast 215 247 6,000 -218 Descending New York TRACON
Tue 10:49:31 AM 40.8000 -74.5667 180° South 214 246 6,000  Level New York TRACON
Tue 10:50:31 AM 40.7333 -74.5667 180° South 214 246 6,000 -500 Level New York TRACON
Tue 10:51:31 AM 40.6833 -74.5667 180° South 216 249 5,000 -500 Descending New York TRACON
Tue 10:52:31 AM 40.6167 -74.5833 191° South 217 250 5,000 -300 Level New York TRACON
Tue 10:53:31 AM 40.5500 -74.5500 159° South 212 244 4,400 -550 Descending New York TRACON
Tue 10:54:31 AM 40.5000 -74.5000 143° Southeast 208 239 3,900 -700 Descending New York TRACON
Tue 10:55:31 AM 40.4667 -74.4667 143° Southeast 179 206 3,000 -450 Descending New York TRACON
Tue 10:56:31 AM 40.4667 -74.4000 90° East 176 203 3,000  Level New York TRACON
Tue 10:57:31 AM 40.4833 -74.3500 66° East 150 173 3,000  Level New York TRACON
Tue 10:58:32 AM 40.5000 -74.3167 57° Northeast 156 180 3,000  Level New York TRACON
Tue 10:59:32 AM 40.5333 -74.2667 49° Northeast 175 201 3,000  Level New York TRACON

Login

Don't have an account? Register now (free) for customized features, flight alerts, and more!